sensor_id;sensor_type;location;lat;lon;timestamp;pressure;altitude;pressure_sealevel;temperature;humidity
48668;BME280;34453;52.198;5.004;2023-06-01T00:01:43;102646.50;;;11.65;100.00
48668;BME280;34453;52.198;5.004;2023-06-01T00:04:08;102645.88;;;11.61;100.00
48668;BME280;34453;52.198;5.004;2023-06-01T00:06:34;102645.16;;;11.59;100.00
48668;BME280;34453;52.198;5.004;2023-06-01T00:09:01;102646.72;;;11.61;100.00
48668;BME280;34453;52.198;5.004;2023-06-01T00:11:28;102643.03;;;11.64;100.00
48668;BME280;34453;52.198;5.004;2023-06-01T00:13:53;102653.84;;;11.59;100.00
48668;BME280;34453;52.198;5.004;2023-06-01T00:16:19;102649.56;;;11.58;100.00
48668;BME280;34453;52.198;5.004;2023-06-01T00:18:45;102658.47;;;11.69;100.00
48668;BME280;34453;52.198;5.004;2023-06-01T00:21:11;102654.38;;;11.65;100.00
48668;BME280;34453;52.198;5.004;2023-06-01T00:23:36;102650.16;;;11.62;100.00
48668;BME280;34453;52.198;5.004;2023-06-01T00:26:06;102656.91;;;11.66;100.00
48668;BME280;34453;52.198;5.004;2023-06-01T00:28:32;102651.66;;;11.66;100.00
48668;BME280;34453;52.198;5.004;2023-06-01T00:30:58;102652.47;;;11.67;100.00
48668;BME280;34453;52.198;5.004;2023-06-01T00:33:23;102647.06;;;11.70;100.00
48668;BME280;34453;52.198;5.004;2023-06-01T00:35:50;102641.16;;;11.66;100.00
48668;BME280;34453;52.198;5.004;2023-06-01T00:38:15;102641.47;;;11.61;100.00
48668;BME280;34453;52.198;5.004;2023-06-01T00:40:40;102642.13;;;11.65;100.00
48668;BME280;34453;52.198;5.004;2023-06-01T00:43:06;102644.94;;;11.75;100.00
48668;BME280;34453;52.198;5.004;2023-06-01T00:45:31;102646.84;;;11.73;100.00
48668;BME280;34453;52.198;5.004;2023-06-01T00:47:57;102638.63;;;11.65;100.00
48668;BME280;34453;52.198;5.004;2023-06-01T00:50:23;102646.41;;;11.66;100.00
48668;BME280;34453;52.198;5.004;2023-06-01T00:52:49;102641.81;;;11.70;100.00
48668;BME280;34453;52.198;5.004;2023-06-01T00:55:15;102643.47;;;11.71;100.00
48668;BME280;34453;52.198;5.004;2023-06-01T00:57:42;102644.94;;;11.75;100.00
48668;BME280;34453;52.198;5.004;2023-06-01T01:00:09;102635.50;;;11.59;100.00
48668;BME280;34453;52.198;5.004;2023-06-01T01:02:39;102644.63;;;11.54;100.00
48668;BME280;34453;52.198;5.004;2023-06-01T01:05:09;102644.91;;;11.49;100.00
48668;BME280;34453;52.198;5.004;2023-06-01T01:10:14;102642.41;;;11.48;100.00
48668;BME280;34453;52.198;5.004;2023-06-01T01:12:49;102645.56;;;11.53;100.00
48668;BME280;34453;52.198;5.004;2023-06-01T01:15:38;102652.69;;;11.51;100.00
48668;BME280;34453;52.198;5.004;2023-06-01T01:18:11;102645.25;;;11.57;100.00
48668;BME280;34453;52.198;5.004;2023-06-01T01:20:44;102639.47;;;11.52;100.00
48668;BME280;34453;52.198;5.004;2023-06-01T01:23:48;102642.13;;;11.65;100.00
48668;BME280;34453;52.198;5.004;2023-06-01T01:28:53;102638.44;;;11.68;100.00
48668;BME280;34453;52.198;5.004;2023-06-01T01:31:23;102638.63;;;11.65;100.00
48668;BME280;34453;52.198;5.004;2023-06-01T01:33:51;102636.00;;;11.65;100.00
48668;BME280;34453;52.198;5.004;2023-06-01T01:36:21;102637.06;;;11.62;100.00
48668;BME280;34453;52.198;5.004;2023-06-01T01:38:47;102645.75;;;11.62;100.00
48668;BME280;34453;52.198;5.004;2023-06-01T01:41:12;102639.06;;;11.58;100.00
48668;BME280;34453;52.198;5.004;2023-06-01T01:43:38;102640.53;;;11.62;100.00
48668;BME280;34453;52.198;5.004;2023-06-01T01:46:53;102653.63;;;11.62;100.00
48668;BME280;34453;52.198;5.004;2023-06-01T01:49:32;102647.88;;;11.57;100.00
48668;BME280;34453;52.198;5.004;2023-06-01T01:54:43;102641.25;;;11.39;100.00
48668;BME280;34453;52.198;5.004;2023-06-01T01:57:09;102635.66;;;11.31;100.00
48668;BME280;34453;52.198;5.004;2023-06-01T01:59:36;102634.00;;;11.30;100.00
48668;BME280;34453;52.198;5.004;2023-06-01T02:02:02;102632.53;;;11.26;100.00
48668;BME280;34453;52.198;5.004;2023-06-01T02:04:28;102634.19;;;11.27;100.00
48668;BME280;34453;52.198;5.004;2023-06-01T02:06:53;102637.38;;;11.32;100.00
48668;BME280;34453;52.198;5.004;2023-06-01T02:09:19;102625.72;;;11.36;100.00
48668;BME280;34453;52.198;5.004;2023-06-01T02:11:45;102635.47;;;11.47;100.00
48668;BME280;34453;52.198;5.004;2023-06-01T02:14:10;102637.16;;;11.48;100.00
48668;BME280;34453;52.198;5.004;2023-06-01T02:16:36;102627.63;;;11.47;100.00
48668;BME280;34453;52.198;5.004;2023-06-01T02:19:01;102627.53;;;11.48;100.00
48668;BME280;34453;52.198;5.004;2023-06-01T02:21:28;102619.44;;;11.51;100.00
48668;BME280;34453;52.198;5.004;2023-06-01T02:23:53;102619.75;;;11.47;100.00
48668;BME280;34453;52.198;5.004;2023-06-01T02:26:19;102631.72;;;11.64;100.00
48668;BME280;34453;52.198;5.004;2023-06-01T02:28:44;102618.09;;;11.58;100.00
48668;BME280;34453;52.198;5.004;2023-06-01T02:31:11;102622.16;;;11.62;100.00
48668;BME280;34453;52.198;5.004;2023-06-01T02:33:38;102617.47;;;11.55;100.00
48668;BME280;34453;52.198;5.004;2023-06-01T02:36:03;102618.09;;;11.58;100.00
48668;BME280;34453;52.198;5.004;2023-06-01T02:38:28;102613.78;;;11.57;100.00
48668;BME280;34453;52.198;5.004;2023-06-01T02:40:54;102619.53;;;11.62;100.00
48668;BME280;34453;52.198;5.004;2023-06-01T02:43:20;102615.66;;;11.55;100.00
48668;BME280;34453;52.198;5.004;2023-06-01T02:45:45;102610.56;;;11.54;100.00
48668;BME280;34453;52.198;5.004;2023-06-01T02:48:11;102621.56;;;11.59;100.00
48668;BME280;34453;52.198;5.004;2023-06-01T02:50:36;102621.66;;;11.57;100.00
48668;BME280;34453;52.198;5.004;2023-06-01T02:53:02;102618.28;;;11.55;100.00
48668;BME280;34453;52.198;5.004;2023-06-01T02:55:28;102616.81;;;11.51;100.00
48668;BME280;34453;52.198;5.004;2023-06-01T02:57:53;102622.94;;;11.52;100.00
48668;BME280;34453;52.198;5.004;2023-06-01T03:00:19;102616.00;;;11.51;100.00
48668;BME280;34453;52.198;5.004;2023-06-01T03:02:45;102617.88;;;11.49;100.00
48668;BME280;34453;52.198;5.004;2023-06-01T03:05:11;102615.38;;;11.47;100.00
48668;BME280;34453;52.198;5.004;2023-06-01T03:07:46;102605.47;;;11.38;100.00
48668;BME280;34453;52.198;5.004;2023-06-01T03:10:12;102605.72;;;11.48;100.00
48668;BME280;34453;52.198;5.004;2023-06-01T03:12:38;102604.16;;;11.45;100.00
48668;BME280;34453;52.198;5.004;2023-06-01T03:15:04;102601.31;;;11.48;100.00
48668;BME280;34453;52.198;5.004;2023-06-01T03:17:31;102607.19;;;11.39;100.00
48668;BME280;34453;52.198;5.004;2023-06-01T03:19:57;102602.56;;;11.43;100.00
48668;BME280;34453;52.198;5.004;2023-06-01T03:22:23;102610.00;;;11.49;100.00
48668;BME280;34453;52.198;5.004;2023-06-01T03:24:48;102607.38;;;11.49;100.00
48668;BME280;34453;52.198;5.004;2023-06-01T03:27:18;102611.16;;;11.45;100.00
48668;BME280;34453;52.198;5.004;2023-06-01T03:29:45;102609.41;;;11.45;100.00
48668;BME280;34453;52.198;5.004;2023-06-01T03:32:10;102617.56;;;11.53;100.00
48668;BME280;34453;52.198;5.004;2023-06-01T03:34:36;102613.88;;;11.56;100.00
48668;BME280;34453;52.198;5.004;2023-06-01T03:37:05;102610.75;;;11.64;100.00
48668;BME280;34453;52.198;5.004;2023-06-01T03:39:31;102612.41;;;11.65;100.00
48668;BME280;34453;52.198;5.004;2023-06-01T03:42:01;102616.00;;;11.64;100.00
48668;BME280;34453;52.198;5.004;2023-06-01T03:44:26;102614.31;;;11.62;100.00
48668;BME280;34453;52.198;5.004;2023-06-01T03:46:51;102605.50;;;11.64;100.00
48668;BME280;34453;52.198;5.004;2023-06-01T03:49:17;102608.13;;;11.64;100.00
48668;BME280;34453;52.198;5.004;2023-06-01T03:51:43;102604.13;;;11.58;100.00
48668;BME280;34453;52.198;5.004;2023-06-01T03:54:09;102609.38;;;11.58;100.00
48668;BME280;34453;52.198;5.004;2023-06-01T03:56:34;102614.13;;;11.66;100.00
48668;BME280;34453;52.198;5.004;2023-06-01T03:59:00;102612.75;;;11.60;100.00
48668;BME280;34453;52.198;5.004;2023-06-01T04:01:27;102604.56;;;11.65;100.00
48668;BME280;34453;52.198;5.004;2023-06-01T04:03:54;102609.28;;;11.59;100.00
48668;BME280;34453;52.198;5.004;2023-06-01T04:06:21;102608.22;;;11.62;100.00
48668;BME280;34453;52.198;5.004;2023-06-01T04:08:47;102606.56;;;11.61;100.00
48668;BME280;34453;52.198;5.004;2023-06-01T04:11:20;102608.03;;;11.52;100.00
48668;BME280;34453;52.198;5.004;2023-06-01T04:13:45;102608.03;;;11.52;100.00
48668;BME280;34453;52.198;5.004;2023-06-01T04:16:11;102613.28;;;11.52;100.00
48668;BME280;34453;52.198;5.004;2023-06-01T04:18:37;102608.75;;;11.54;100.00
48668;BME280;34453;52.198;5.004;2023-06-01T04:21:02;102603.72;;;11.51;100.00
48668;BME280;34453;52.198;5.004;2023-06-01T04:23:28;102606.16;;;11.54;100.00
48668;BME280;34453;52.198;5.004;2023-06-01T04:25:54;102610.13;;;11.60;100.00
48668;BME280;34453;52.198;5.004;2023-06-01T04:28:24;102614.13;;;11.66;100.00
48668;BME280;34453;52.198;5.004;2023-06-01T04:30:50;102615.78;;;11.67;100.00
48668;BME280;34453;52.198;5.004;2023-06-01T04:33:17;102615.47;;;11.71;100.00
48668;BME280;34453;52.198;5.004;2023-06-01T04:35:42;102613.56;;;11.73;100.00
48668;BME280;34453;52.198;5.004;2023-06-01T04:38:08;102605.09;;;11.70;100.00
48668;BME280;34453;52.198;5.004;2023-06-01T04:40:34;102604.97;;;11.71;100.00
48668;BME280;34453;52.198;5.004;2023-06-01T04:42:59;102607.19;;;11.77;100.00
48668;BME280;34453;52.198;5.004;2023-06-01T04:45:27;102605.06;;;11.82;100.00
48668;BME280;34453;52.198;5.004;2023-06-01T04:47:56;102605.50;;;11.89;100.00
48668;BME280;34453;52.198;5.004;2023-06-01T04:50:23;102606.47;;;11.88;100.00
48668;BME280;34453;52.198;5.004;2023-06-01T04:52:48;102610.94;;;11.86;100.00
48668;BME280;34453;52.198;5.004;2023-06-01T04:55:15;102603.44;;;11.94;100.00
48668;BME280;34453;52.198;5.004;2023-06-01T04:57:42;102616.41;;;11.96;100.00
48668;BME280;34453;52.198;5.004;2023-06-01T05:00:12;102618.44;;;11.92;100.00
48668;BME280;34453;52.198;5.004;2023-06-01T05:02:39;102610.94;;;11.86;100.00
48668;BME280;34453;52.198;5.004;2023-06-01T05:05:05;102619.50;;;11.90;100.00
48668;BME280;34453;52.198;5.004;2023-06-01T05:07:31;102615.59;;;11.95;100.00
48668;BME280;34453;52.198;5.004;2023-06-01T05:09:57;102616.66;;;11.93;100.00
48668;BME280;34453;52.198;5.004;2023-06-01T05:12:23;102621.06;;;11.92;100.00
48668;BME280;34453;52.198;5.004;2023-06-01T05:14:49;102614.97;;;11.92;100.00
48668;BME280;34453;52.198;5.004;2023-06-01T05:17:15;102616.31;;;11.97;100.00
48668;BME280;34453;52.198;5.004;2023-06-01T05:19:40;102608.44;;;11.97;100.00
48668;BME280;34453;52.198;5.004;2023-06-01T05:22:05;102611.81;;;11.99;100.00
48668;BME280;34453;52.198;5.004;2023-06-01T05:24:31;102604.44;;;12.05;100.00
48668;BME280;34453;52.198;5.004;2023-06-01T05:26:56;102611.16;;;12.09;100.00
48668;BME280;34453;52.198;5.004;2023-06-01T05:29:22;102616.22;;;12.12;100.00
48668;BME280;34453;52.198;5.004;2023-06-01T05:31:49;102609.28;;;12.11;100.00
48668;BME280;34453;52.198;5.004;2023-06-01T05:34:14;102611.47;;;12.17;100.00
48668;BME280;34453;52.198;5.004;2023-06-01T05:36:40;102611.13;;;12.21;100.00
48668;BME280;34453;52.198;5.004;2023-06-01T05:39:06;102619.66;;;12.25;100.00
48668;BME280;34453;52.198;5.004;2023-06-01T05:41:31;102629.19;;;12.26;100.00
48668;BME280;34453;52.198;5.004;2023-06-01T05:43:57;102611.31;;;12.31;100.00
48668;BME280;34453;52.198;5.004;2023-06-01T05:46:22;102622.34;;;12.36;100.00
48668;BME280;34453;52.198;5.004;2023-06-01T05:48:50;102619.25;;;12.42;100.00
48668;BME280;34453;52.198;5.004;2023-06-01T05:51:16;102623.00;;;12.51;100.00
48668;BME280;34453;52.198;5.004;2023-06-01T05:53:42;102617.38;;;12.44;100.00
48668;BME280;34453;52.198;5.004;2023-06-01T05:56:08;102613.22;;;12.29;100.00
48668;BME280;34453;52.198;5.004;2023-06-01T05:58:33;102621.47;;;12.36;100.00
48668;BME280;34453;52.198;5.004;2023-06-01T06:00:59;102624.19;;;12.47;100.00
48668;BME280;34453;52.198;5.004;2023-06-01T06:03:24;102619.06;;;12.46;100.00
48668;BME280;34453;52.198;5.004;2023-06-01T06:05:50;102610.66;;;12.40;100.00
48668;BME280;34453;52.198;5.004;2023-06-01T06:08:15;102600.88;;;12.42;100.00
48668;BME280;34453;52.198;5.004;2023-06-01T06:10:41;102609.88;;;12.51;100.00
48668;BME280;34453;52.198;5.004;2023-06-01T06:13:07;102606.00;;;12.57;100.00
48668;BME280;34453;52.198;5.004;2023-06-01T06:15:32;102608.28;;;12.61;100.00
48668;BME280;34453;52.198;5.004;2023-06-01T06:17:58;102603.66;;;12.65;100.00
48668;BME280;34453;52.198;5.004;2023-06-01T06:20:23;102616.91;;;12.63;100.00
48668;BME280;34453;52.198;5.004;2023-06-01T06:22:52;102611.31;;;12.68;100.00
48668;BME280;34453;52.198;5.004;2023-06-01T06:25:18;102609.84;;;12.64;100.00
48668;BME280;34453;52.198;5.004;2023-06-01T06:27:44;102603.81;;;12.75;100.00
48668;BME280;34453;52.198;5.004;2023-06-01T06:30:11;102602.31;;;12.83;100.00
48668;BME280;34453;52.198;5.004;2023-06-01T06:32:36;102593.59;;;12.83;100.00
48668;BME280;34453;52.198;5.004;2023-06-01T06:35:02;102604.09;;;12.83;100.00
48668;BME280;34453;52.198;5.004;2023-06-01T06:37:28;102597.34;;;12.92;100.00
48668;BME280;34453;52.198;5.004;2023-06-01T06:39:54;102591.75;;;12.96;100.00
48668;BME280;34453;52.198;5.004;2023-06-01T06:42:20;102604.03;;;13.07;100.00
48668;BME280;34453;52.198;5.004;2023-06-01T06:44:45;102609.31;;;13.07;100.00
48668;BME280;34453;52.198;5.004;2023-06-01T06:47:11;102608.03;;;13.13;100.00
48668;BME280;34453;52.198;5.004;2023-06-01T06:49:40;102601.66;;;13.28;100.00
48668;BME280;34453;52.198;5.004;2023-06-01T06:52:06;102603.31;;;13.29;100.00
48668;BME280;34453;52.198;5.004;2023-06-01T06:54:33;102600.47;;;13.32;100.00
48668;BME280;34453;52.198;5.004;2023-06-01T06:56:59;102602.69;;;13.25;100.00
48668;BME280;34453;52.198;5.004;2023-06-01T06:59:24;102608.66;;;13.27;100.00
48668;BME280;34453;52.198;5.004;2023-06-01T07:01:50;102610.38;;;13.29;100.00
48668;BME280;34453;52.198;5.004;2023-06-01T07:04:15;102612.53;;;13.35;100.00
48668;BME280;34453;52.198;5.004;2023-06-01T07:06:40;102603.94;;;13.33;100.00
48668;BME280;34453;52.198;5.004;2023-06-01T07:09:07;102610.00;;;13.33;100.00
48668;BME280;34453;52.198;5.004;2023-06-01T07:11:34;102612.28;;;13.38;100.00
48668;BME280;34453;52.198;5.004;2023-06-01T07:13:59;102618.28;;;13.40;100.00
48668;BME280;34453;52.198;5.004;2023-06-01T07:16:24;102608.97;;;13.47;100.00
48668;BME280;34453;52.198;5.004;2023-06-01T07:18:51;102604.56;;;13.47;100.00
48668;BME280;34453;52.198;5.004;2023-06-01T07:21:17;102611.75;;;13.57;100.00
48668;BME280;34453;52.198;5.004;2023-06-01T07:23:42;102613.41;;;13.58;100.00
48668;BME280;34453;52.198;5.004;2023-06-01T07:26:11;102607.31;;;13.68;100.00
48668;BME280;34453;52.198;5.004;2023-06-01T07:28:36;102604.69;;;13.68;100.00
48668;BME280;34453;52.198;5.004;2023-06-01T07:31:03;102602.78;;;13.71;100.00
48668;BME280;34453;52.198;5.004;2023-06-01T07:33:29;102598.72;;;13.78;100.00
48668;BME280;34453;52.198;5.004;2023-06-01T07:35:54;102601.47;;;13.87;100.00
48668;BME280;34453;52.198;5.004;2023-06-01T07:38:22;102605.06;;;13.86;100.00
48668;BME280;34453;52.198;5.004;2023-06-01T07:40:49;102609.97;;;13.91;100.00
48668;BME280;34453;52.198;5.004;2023-06-01T07:43:15;102607.09;;;14.05;100.00
48668;BME280;34453;52.198;5.004;2023-06-01T07:45:40;102605.19;;;14.07;100.00
48668;BME280;34453;52.198;5.004;2023-06-01T07:48:06;102604.19;;;14.20;100.00
48668;BME280;34453;52.198;5.004;2023-06-01T07:50:31;102610.41;;;14.30;100.00
48668;BME280;34453;52.198;5.004;2023-06-01T07:52:58;102608.63;;;14.19;100.00
48668;BME280;34453;52.198;5.004;2023-06-01T07:55:24;102603.63;;;14.16;100.00
48668;BME280;34453;52.198;5.004;2023-06-01T07:57:49;102608.03;;;14.16;100.00
48668;BME280;34453;52.198;5.004;2023-06-01T08:00:16;102608.63;;;14.19;100.00
48668;BME280;34453;52.198;5.004;2023-06-01T08:02:43;102604.81;;;14.23;100.00
48668;BME280;34453;52.198;5.004;2023-06-01T08:05:09;102614.25;;;14.26;100.00
48668;BME280;34453;52.198;5.004;2023-06-01T08:07:39;102608.63;;;14.19;100.00
48668;BME280;34453;52.198;5.004;2023-06-01T08:10:05;102608.63;;;14.30;100.00
48668;BME280;34453;52.198;5.004;2023-06-01T08:12:31;102602.13;;;14.46;100.00
48668;BME280;34453;52.198;5.004;2023-06-01T08:14:58;102593.25;;;14.58;100.00
48668;BME280;34453;52.198;5.004;2023-06-01T08:17:24;102599.81;;;14.52;100.00
48668;BME280;34453;52.198;5.004;2023-06-01T08:19:49;102596.13;;;14.55;100.00
48668;BME280;34453;52.198;5.004;2023-06-01T08:22:16;102598.41;;;14.48;100.00
48668;BME280;34453;52.198;5.004;2023-06-01T08:24:42;102595.88;;;14.58;100.00
48668;BME280;34453;52.198;5.004;2023-06-01T08:27:18;102593.34;;;14.68;100.00
48668;BME280;34453;52.198;5.004;2023-06-01T08:29:46;102591.59;;;14.78;100.00
48668;BME280;34453;52.198;5.004;2023-06-01T08:32:12;102590.00;;;14.66;100.00
48668;BME280;34453;52.198;5.004;2023-06-01T08:34:38;102594.28;;;14.67;100.00
48668;BME280;34453;52.198;5.004;2023-06-01T08:37:03;102583.75;;;14.67;100.00
48668;BME280;34453;52.198;5.004;2023-06-01T08:39:30;102593.91;;;14.71;100.00
48668;BME280;34453;52.198;5.004;2023-06-01T08:44:40;102581.56;;;14.83;100.00
48668;BME280;34453;52.198;5.004;2023-06-01T08:47:06;102576.41;;;14.82;100.00
48668;BME280;34453;52.198;5.004;2023-06-01T08:49:34;102590.66;;;14.79;100.00
48668;BME280;34453;52.198;5.004;2023-06-01T08:52:04;102581.03;;;14.89;100.00
48668;BME280;34453;52.198;5.004;2023-06-01T08:54:32;102579.31;;;15.21;100.00
48668;BME280;34453;52.198;5.004;2023-06-01T08:57:03;102586.38;;;15.41;100.00
48668;BME280;34453;52.198;5.004;2023-06-01T08:59:29;102581.66;;;15.45;100.00
48668;BME280;34453;52.198;5.004;2023-06-01T09:01:57;102584.84;;;15.39;100.00
48668;BME280;34453;52.198;5.004;2023-06-01T09:04:22;102590.06;;;15.08;100.00
48668;BME280;34453;52.198;5.004;2023-06-01T09:06:48;102583.41;;;15.13;100.00
48668;BME280;34453;52.198;5.004;2023-06-01T09:09:13;102578.28;;;15.12;100.00
48668;BME280;34453;52.198;5.004;2023-06-01T09:11:39;102588.88;;;15.22;100.00
48668;BME280;34453;52.198;5.004;2023-06-01T09:14:24;102579.16;;;15.43;100.00
48668;BME280;34453;52.198;5.004;2023-06-01T09:16:51;102572.91;;;15.65;100.00
48668;BME280;34453;52.198;5.004;2023-06-01T09:19:17;102574.06;;;15.72;100.00
48668;BME280;34453;52.198;5.004;2023-06-01T09:21:58;102569.53;;;15.94;100.00
48668;BME280;34453;52.198;5.004;2023-06-01T09:24:25;102565.03;;;15.75;100.00
48668;BME280;34453;52.198;5.004;2023-06-01T09:26:57;102561.72;;;15.83;100.00
48668;BME280;34453;52.198;5.004;2023-06-01T09:29:24;102567.34;;;15.68;100.00
48668;BME280;34453;52.198;5.004;2023-06-01T09:31:49;102560.78;;;15.84;100.00
48668;BME280;34453;52.198;5.004;2023-06-01T09:34:17;102551.63;;;15.88;100.00
48668;BME280;34453;52.198;5.004;2023-06-01T09:36:49;102560.47;;;15.87;100.00
48668;BME280;34453;52.198;5.004;2023-06-01T09:39:18;102564.91;;;15.77;100.00
48668;BME280;34453;52.198;5.004;2023-06-01T09:44:42;102557.84;;;15.87;100.00
48668;BME280;34453;52.198;5.004;2023-06-01T09:47:09;102545.75;;;15.74;100.00
48668;BME280;34453;52.198;5.004;2023-06-01T09:49:40;102546.88;;;15.82;100.00
48668;BME280;34453;52.198;5.004;2023-06-01T09:54:39;102540.19;;;15.78;100.00
48668;BME280;34453;52.198;5.004;2023-06-01T09:57:06;102548.53;;;15.83;100.00
48668;BME280;34453;52.198;5.004;2023-06-01T09:59:43;102554.56;;;15.94;100.00
48668;BME280;34453;52.198;5.004;2023-06-01T10:02:15;102548.00;;;15.89;100.00
48668;BME280;34453;52.198;5.004;2023-06-01T10:04:42;102539.16;;;16.09;100.00
48668;BME280;34453;52.198;5.004;2023-06-01T10:07:11;102537.44;;;15.89;100.00
48668;BME280;34453;52.198;5.004;2023-06-01T10:09:41;102549.94;;;15.87;100.00
48668;BME280;34453;52.198;5.004;2023-06-01T10:12:07;102558.03;;;15.95;100.00
48668;BME280;34453;52.198;5.004;2023-06-01T10:14:36;102552.63;;;16.16;100.00
48668;BME280;34453;52.198;5.004;2023-06-01T10:17:03;102545.84;;;16.43;100.00
48668;BME280;34453;52.198;5.004;2023-06-01T10:19:29;102548.25;;;16.55;100.00
48668;BME280;34453;52.198;5.004;2023-06-01T10:21:59;102540.16;;;16.47;100.00
48668;BME280;34453;52.198;5.004;2023-06-01T10:24:26;102559.50;;;16.57;100.00
48668;BME280;34453;52.198;5.004;2023-06-01T10:29:40;102551.13;;;17.11;100.00
48668;BME280;34453;52.198;5.004;2023-06-01T10:32:42;102542.06;;;17.23;100.00
48668;BME280;34453;52.198;5.004;2023-06-01T10:35:09;102532.06;;;17.17;100.00
48668;BME280;34453;52.198;5.004;2023-06-01T10:37:38;102532.16;;;17.35;100.00
48668;BME280;34453;52.198;5.004;2023-06-01T10:42:41;102534.78;;;17.35;100.00
48668;BME280;34453;52.198;5.004;2023-06-01T10:45:07;102531.75;;;17.20;100.00
48668;BME280;34453;52.198;5.004;2023-06-01T10:52:28;102521.97;;;18.23;100.00
48668;BME280;34453;52.198;5.004;2023-06-01T10:54:56;102521.28;;;18.39;100.00
48668;BME280;34453;52.198;5.004;2023-06-01T10:57:25;102516.34;;;18.44;100.00
48668;BME280;34453;52.198;5.004;2023-06-01T11:00:13;102512.78;;;18.53;100.00
48668;BME280;34453;52.198;5.004;2023-06-01T11:02:44;102519.91;;;18.35;100.00
48668;BME280;34453;52.198;5.004;2023-06-01T11:08:08;102508.47;;;18.52;100.00
48668;BME280;34453;52.198;5.004;2023-06-01T11:13:16;102508.19;;;17.92;100.00
48668;BME280;34453;52.198;5.004;2023-06-01T11:18:54;102510.97;;;18.36;100.00
48668;BME280;34453;52.198;5.004;2023-06-01T11:24:07;102518.75;;;18.01;100.00
48668;BME280;34453;52.198;5.004;2023-06-01T11:26:37;102518.88;;;17.82;100.00
48668;BME280;34453;52.198;5.004;2023-06-01T11:29:23;102509.09;;;18.28;100.00
48668;BME280;34453;52.198;5.004;2023-06-01T11:31:55;102508.50;;;18.60;100.00
48668;BME280;34453;52.198;5.004;2023-06-01T11:34:34;102510.69;;;18.39;100.00
48668;BME280;34453;52.198;5.004;2023-06-01T11:37:02;102515.44;;;18.35;100.00
48668;BME280;34453;52.198;5.004;2023-06-01T11:39:28;102512.63;;;18.01;100.00
48668;BME280;34453;52.198;5.004;2023-06-01T11:42:16;102514.41;;;17.83;100.00
48668;BME280;34453;52.198;5.004;2023-06-01T11:44:56;102521.25;;;18.03;100.00
48668;BME280;34453;52.198;5.004;2023-06-01T11:47:21;102507.78;;;18.14;100.00
48668;BME280;34453;52.198;5.004;2023-06-01T11:49:49;102511.63;;;18.02;100.00
48668;BME280;34453;52.198;5.004;2023-06-01T11:52:19;102513.06;;;17.69;100.00
48668;BME280;34453;52.198;5.004;2023-06-01T11:54:46;102513.06;;;17.69;100.00
48668;BME280;34453;52.198;5.004;2023-06-01T11:57:12;102518.03;;;17.44;100.00
48668;BME280;34453;52.198;5.004;2023-06-01T12:04:59;102530.00;;;16.91;100.00
48668;BME280;34453;52.198;5.004;2023-06-01T12:07:25;102525.31;;;16.85;100.00
48668;BME280;34453;52.198;5.004;2023-06-01T12:09:52;102518.91;;;16.68;100.00
48668;BME280;34453;52.198;5.004;2023-06-01T12:12:21;102534.75;;;16.68;100.00
48668;BME280;34453;52.198;5.004;2023-06-01T12:14:48;102532.94;;;16.69;100.00
48668;BME280;34453;52.198;5.004;2023-06-01T12:17:14;102514.47;;;16.59;100.00
48668;BME280;34453;52.198;5.004;2023-06-01T12:19:50;102526.94;;;16.47;100.00
48668;BME280;34453;52.198;5.004;2023-06-01T12:22:16;102536.53;;;16.29;100.00
48668;BME280;34453;52.198;5.004;2023-06-01T12:24:42;102529.44;;;16.29;100.00
48668;BME280;34453;52.198;5.004;2023-06-01T12:27:14;102531.13;;;16.30;100.00
48668;BME280;34453;52.198;5.004;2023-06-01T12:29:44;102541.94;;;16.08;100.00
48668;BME280;34453;52.198;5.004;2023-06-01T12:32:11;102542.34;;;16.03;100.00
48668;BME280;34453;52.198;5.004;2023-06-01T12:34:39;102542.31;;;15.93;100.00
48668;BME280;34453;52.198;5.004;2023-06-01T12:37:12;102542.06;;;15.97;100.00
48668;BME280;34453;52.198;5.004;2023-06-01T12:39:38;102532.44;;;15.95;100.00
48668;BME280;34453;52.198;5.004;2023-06-01T12:42:05;102530.22;;;15.81;100.00
48668;BME280;34453;52.198;5.004;2023-06-01T12:44:31;102531.75;;;15.84;100.00
48668;BME280;34453;52.198;5.004;2023-06-01T12:47:00;102535.19;;;15.74;100.00
48668;BME280;34453;52.198;5.004;2023-06-01T12:49:26;102529.56;;;15.68;100.00
48668;BME280;34453;52.198;5.004;2023-06-01T12:51:54;102528.03;;;15.65;100.00
48668;BME280;34453;52.198;5.004;2023-06-01T12:54:19;102541.19;;;15.55;100.00
48668;BME280;34453;52.198;5.004;2023-06-01T12:56:47;102535.91;;;15.55;100.00
48668;BME280;34453;52.198;5.004;2023-06-01T12:59:13;102543.06;;;15.44;100.00
48668;BME280;34453;52.198;5.004;2023-06-01T13:01:39;102541.06;;;15.36;100.00
48668;BME280;34453;52.198;5.004;2023-06-01T13:04:04;102539.38;;;15.25;100.00
48668;BME280;34453;52.198;5.004;2023-06-01T13:06:30;102539.16;;;15.38;100.00
48668;BME280;34453;52.198;5.004;2023-06-01T13:08:55;102539.47;;;15.45;100.00
48668;BME280;34453;52.198;5.004;2023-06-01T13:11:21;102542.00;;;15.56;100.00
48668;BME280;34453;52.198;5.004;2023-06-01T13:13:50;102536.19;;;15.62;100.00
48668;BME280;34453;52.198;5.004;2023-06-01T13:16:16;102524.81;;;15.62;100.00
48668;BME280;34453;52.198;5.004;2023-06-01T13:18:42;102529.38;;;15.50;100.00
48668;BME280;34453;52.198;5.004;2023-06-01T13:21:09;102522.88;;;15.54;100.00
48668;BME280;34453;52.198;5.004;2023-06-01T13:23:35;102534.84;;;15.68;100.00
48668;BME280;34453;52.198;5.004;2023-06-01T13:26:01;102520.97;;;15.66;100.00